sensor_id;sensor_type;location;lat;lon;timestamp;temperature;humidity
19224;DHT22;9746;47.180;9.776;2023-04-24T10:17:42;14.20;99.90
19224;DHT22;9746;47.180;9.776;2023-04-24T10:20:11;14.00;99.90
19224;DHT22;9746;47.180;9.776;2023-04-24T10:22:40;14.20;99.90
19224;DHT22;9746;47.180;9.776;2023-04-24T10:25:08;14.40;99.90
19224;DHT22;9746;47.180;9.776;2023-04-24T10:27:38;14.50;99.90
19224;DHT22;9746;47.180;9.776;2023-04-24T10:30:08;14.50;99.90
19224;DHT22;9746;47.180;9.776;2023-04-24T10:32:59;14.50;99.90
19224;DHT22;9746;47.180;9.776;2023-04-24T10:35:26;14.40;99.90
19224;DHT22;9746;47.180;9.776;2023-04-24T10:37:57;14.40;99.90
19224;DHT22;9746;47.180;9.776;2023-04-24T10:40:27;14.40;99.90
19224;DHT22;9746;47.180;9.776;2023-04-24T10:43:07;14.40;99.90
19224;DHT22;9746;47.180;9.776;2023-04-24T10:45:37;14.50;99.90
19224;DHT22;9746;47.180;9.776;2023-04-24T10:48:08;14.60;99.90
19224;DHT22;9746;47.180;9.776;2023-04-24T10:50:46;14.40;99.90
19224;DHT22;9746;47.180;9.776;2023-04-24T10:53:17;14.00;99.90
19224;DHT22;9746;47.180;9.776;2023-04-24T10:55:47;13.80;99.90
19224;DHT22;9746;47.180;9.776;2023-04-24T10:58:36;13.70;99.90
19224;DHT22;9746;47.180;9.776;2023-04-24T11:01:04;13.60;99.90
19224;DHT22;9746;47.180;9.776;2023-04-24T11:03:35;13.60;99.90
19224;DHT22;9746;47.180;9.776;2023-04-24T11:06:04;13.50;99.90
19224;DHT22;9746;47.180;9.776;2023-04-24T11:08:42;13.50;99.90
19224;DHT22;9746;47.180;9.776;2023-04-24T11:11:11;13.40;99.90
19224;DHT22;9746;47.180;9.776;2023-04-24T11:16:33;13.30;99.90
19224;DHT22;9746;47.180;9.776;2023-04-24T11:19:05;13.10;99.90
19224;DHT22;9746;47.180;9.776;2023-04-24T11:21:40;13.10;99.90
19224;DHT22;9746;47.180;9.776;2023-04-24T11:24:28;13.00;99.90
19224;DHT22;9746;47.180;9.776;2023-04-24T11:26:58;13.10;99.90
19224;DHT22;9746;47.180;9.776;2023-04-24T11:29:47;13.10;99.90
19224;DHT22;9746;47.180;9.776;2023-04-24T11:32:25;13.00;99.90
19224;DHT22;9746;47.180;9.776;2023-04-24T11:35:03;13.10;99.90
19224;DHT22;9746;47.180;9.776;2023-04-24T11:37:35;13.10;99.90
19224;DHT22;9746;47.180;9.776;2023-04-24T11:40:06;13.30;99.90
19224;DHT22;9746;47.180;9.776;2023-04-24T11:42:34;13.60;99.90
19224;DHT22;9746;47.180;9.776;2023-04-24T11:45:06;13.70;99.90
19224;DHT22;9746;47.180;9.776;2023-04-24T11:47:34;13.70;99.90
19224;DHT22;9746;47.180;9.776;2023-04-24T11:50:06;13.60;99.90
19224;DHT22;9746;47.180;9.776;2023-04-24T11:52:36;13.70;99.90
19224;DHT22;9746;47.180;9.776;2023-04-24T11:55:12;13.60;99.90
19224;DHT22;9746;47.180;9.776;2023-04-24T11:57:51;13.80;99.90
19224;DHT22;9746;47.180;9.776;2023-04-24T12:00:22;13.90;99.90
19224;DHT22;9746;47.180;9.776;2023-04-24T12:02:50;14.10;99.90
19224;DHT22;9746;47.180;9.776;2023-04-24T12:05:28;14.10;99.90
19224;DHT22;9746;47.180;9.776;2023-04-24T12:07:57;14.00;99.90
19224;DHT22;9746;47.180;9.776;2023-04-24T12:10:26;14.00;99.90
19224;DHT22;9746;47.180;9.776;2023-04-24T12:12:56;14.00;99.90
19224;DHT22;9746;47.180;9.776;2023-04-24T12:15:25;14.00;99.90
19224;DHT22;9746;47.180;9.776;2023-04-24T12:17:53;14.20;99.90
19224;DHT22;9746;47.180;9.776;2023-04-24T12:20:32;14.40;99.90
19224;DHT22;9746;47.180;9.776;2023-04-24T12:23:00;14.30;99.90
19224;DHT22;9746;47.180;9.776;2023-04-24T12:25:32;14.30;99.90
19224;DHT22;9746;47.180;9.776;2023-04-24T12:28:10;14.30;99.90
19224;DHT22;9746;47.180;9.776;2023-04-24T12:30:48;14.20;99.90
19224;DHT22;9746;47.180;9.776;2023-04-24T12:33:18;14.10;99.90
19224;DHT22;9746;47.180;9.776;2023-04-24T12:35:52;14.10;99.90
19224;DHT22;9746;47.180;9.776;2023-04-24T12:38:23;14.00;99.90
19224;DHT22;9746;47.180;9.776;2023-04-24T12:41:02;13.90;99.90
19224;DHT22;9746;47.180;9.776;2023-04-24T12:43:30;13.80;99.90
19224;DHT22;9746;47.180;9.776;2023-04-24T12:45:57;13.90;99.90
19224;DHT22;9746;47.180;9.776;2023-04-24T12:48:25;14.00;99.90
19224;DHT22;9746;47.180;9.776;2023-04-24T12:50:54;14.20;99.90
19224;DHT22;9746;47.180;9.776;2023-04-24T12:53:22;14.50;99.90
19224;DHT22;9746;47.180;9.776;2023-04-24T12:55:52;14.70;99.90
19224;DHT22;9746;47.180;9.776;2023-04-24T12:58:20;15.00;99.90
19224;DHT22;9746;47.180;9.776;2023-04-24T13:00:48;15.20;99.90
19224;DHT22;9746;47.180;9.776;2023-04-24T13:03:16;15.40;99.90
19224;DHT22;9746;47.180;9.776;2023-04-24T13:05:58;15.50;99.90
19224;DHT22;9746;47.180;9.776;2023-04-24T13:08:25;15.50;99.90
19224;DHT22;9746;47.180;9.776;2023-04-24T13:10:53;15.60;99.90
19224;DHT22;9746;47.180;9.776;2023-04-24T13:13:21;15.60;99.90
19224;DHT22;9746;47.180;9.776;2023-04-24T13:16:10;16.20;99.90
19224;DHT22;9746;47.180;9.776;2023-04-24T13:18:40;17.00;99.90
19224;DHT22;9746;47.180;9.776;2023-04-24T13:21:09;16.80;99.90
19224;DHT22;9746;47.180;9.776;2023-04-24T13:23:36;17.30;99.90
19224;DHT22;9746;47.180;9.776;2023-04-24T13:26:05;18.20;99.90
19224;DHT22;9746;47.180;9.776;2023-04-24T13:28:33;19.70;99.90
19224;DHT22;9746;47.180;9.776;2023-04-24T13:31:00;20.40;99.90
19224;DHT22;9746;47.180;9.776;2023-04-24T13:33:28;20.90;99.90
19224;DHT22;9746;47.180;9.776;2023-04-24T13:35:56;19.80;99.90
19224;DHT22;9746;47.180;9.776;2023-04-24T13:38:24;19.80;99.90
19224;DHT22;9746;47.180;9.776;2023-04-24T13:40:53;19.70;99.90
19224;DHT22;9746;47.180;9.776;2023-04-24T13:43:22;19.70;99.90
19224;DHT22;9746;47.180;9.776;2023-04-24T13:45:51;19.50;99.90
19224;DHT22;9746;47.180;9.776;2023-04-24T13:48:19;19.60;99.90
19224;DHT22;9746;47.180;9.776;2023-04-24T13:50:47;19.50;99.90
19224;DHT22;9746;47.180;9.776;2023-04-24T13:53:16;19.20;99.90
19224;DHT22;9746;47.180;9.776;2023-04-24T13:55:48;19.20;99.90
19224;DHT22;9746;47.180;9.776;2023-04-24T13:58:16;19.20;99.90
19224;DHT22;9746;47.180;9.776;2023-04-24T14:00:51;19.10;99.90
19224;DHT22;9746;47.180;9.776;2023-04-24T14:03:19;18.60;99.90
19224;DHT22;9746;47.180;9.776;2023-04-24T14:05:47;18.40;99.90
19224;DHT22;9746;47.180;9.776;2023-04-24T14:08:15;17.50;99.90
19224;DHT22;9746;47.180;9.776;2023-04-24T14:10:52;17.40;99.90
19224;DHT22;9746;47.180;9.776;2023-04-24T14:13:21;17.10;99.90
19224;DHT22;9746;47.180;9.776;2023-04-24T14:15:53;17.00;99.90
19224;DHT22;9746;47.180;9.776;2023-04-24T14:18:20;16.80;99.90
19224;DHT22;9746;47.180;9.776;2023-04-24T14:20:50;16.50;99.90
19224;DHT22;9746;47.180;9.776;2023-04-24T14:23:17;15.90;99.90
19224;DHT22;9746;47.180;9.776;2023-04-24T14:26:01;15.50;99.90
19224;DHT22;9746;47.180;9.776;2023-04-24T14:28:28;15.30;99.90
19224;DHT22;9746;47.180;9.776;2023-04-24T14:30:59;15.60;99.90
19224;DHT22;9746;47.180;9.776;2023-04-24T14:33:26;16.20;99.90
19224;DHT22;9746;47.180;9.776;2023-04-24T14:35:54;17.30;99.90
19224;DHT22;9746;47.180;9.776;2023-04-24T14:38:22;19.10;99.90
19224;DHT22;9746;47.180;9.776;2023-04-24T14:40:50;20.50;99.90
19224;DHT22;9746;47.180;9.776;2023-04-24T14:43:18;21.80;99.90
19224;DHT22;9746;47.180;9.776;2023-04-24T14:45:47;23.40;99.90
19224;DHT22;9746;47.180;9.776;2023-04-24T14:48:14;25.10;99.90
19224;DHT22;9746;47.180;9.776;2023-04-24T14:50:44;26.80;99.90
19224;DHT22;9746;47.180;9.776;2023-04-24T14:53:11;27.80;99.90
19224;DHT22;9746;47.180;9.776;2023-04-24T14:55:55;29.20;97.80
19224;DHT22;9746;47.180;9.776;2023-04-24T14:58:25;29.80;92.20
19224;DHT22;9746;47.180;9.776;2023-04-24T15:01:27;30.00;90.50
19224;DHT22;9746;47.180;9.776;2023-04-24T15:03:55;30.20;85.20
19224;DHT22;9746;47.180;9.776;2023-04-24T15:06:31;30.40;84.50
19224;DHT22;9746;47.180;9.776;2023-04-24T15:08:59;30.20;82.30
19224;DHT22;9746;47.180;9.776;2023-04-24T15:11:46;29.10;82.40
19224;DHT22;9746;47.180;9.776;2023-04-24T15:14:15;27.60;84.60
19224;DHT22;9746;47.180;9.776;2023-04-24T15:16:44;26.70;86.70
19224;DHT22;9746;47.180;9.776;2023-04-24T15:19:13;25.60;87.80
19224;DHT22;9746;47.180;9.776;2023-04-24T15:21:56;24.70;89.50
19224;DHT22;9746;47.180;9.776;2023-04-24T15:24:24;24.10;89.60
19224;DHT22;9746;47.180;9.776;2023-04-24T15:27:19;23.40;90.90
19224;DHT22;9746;47.180;9.776;2023-04-24T15:30:00;22.10;91.20
19224;DHT22;9746;47.180;9.776;2023-04-24T15:32:29;21.30;92.20
19224;DHT22;9746;47.180;9.776;2023-04-24T15:34:58;20.20;93.20
19224;DHT22;9746;47.180;9.776;2023-04-24T15:37:27;19.70;94.30
19224;DHT22;9746;47.180;9.776;2023-04-24T15:39:56;19.20;94.80
19224;DHT22;9746;47.180;9.776;2023-04-24T15:42:25;19.10;96.40
19224;DHT22;9746;47.180;9.776;2023-04-24T15:45:07;20.20;97.00
19224;DHT22;9746;47.180;9.776;2023-04-24T15:47:36;20.70;96.80
19224;DHT22;9746;47.180;9.776;2023-04-24T15:50:04;20.60;95.30
19224;DHT22;9746;47.180;9.776;2023-04-24T15:52:34;20.30;95.00
19224;DHT22;9746;47.180;9.776;2023-04-24T15:55:05;19.60;95.00
19224;DHT22;9746;47.180;9.776;2023-04-24T15:57:35;18.80;95.30
19224;DHT22;9746;47.180;9.776;2023-04-24T16:00:10;18.50;96.40
19224;DHT22;9746;47.180;9.776;2023-04-24T16:02:39;18.10;96.70
19224;DHT22;9746;47.180;9.776;2023-04-24T16:05:10;17.50;97.10
19224;DHT22;9746;47.180;9.776;2023-04-24T16:07:43;17.30;97.90
19224;DHT22;9746;47.180;9.776;2023-04-24T16:10:18;17.10;98.30
19224;DHT22;9746;47.180;9.776;2023-04-24T16:12:46;16.90;98.90
19224;DHT22;9746;47.180;9.776;2023-04-24T16:15:22;17.10;98.60
19224;DHT22;9746;47.180;9.776;2023-04-24T16:17:51;17.10;98.70
19224;DHT22;9746;47.180;9.776;2023-04-24T16:20:25;17.10;99.00
19224;DHT22;9746;47.180;9.776;2023-04-24T16:22:53;16.90;98.60
19224;DHT22;9746;47.180;9.776;2023-04-24T16:25:21;16.90;99.10
19224;DHT22;9746;47.180;9.776;2023-04-24T16:27:49;16.80;98.60
19224;DHT22;9746;47.180;9.776;2023-04-24T16:30:23;16.90;99.10
19224;DHT22;9746;47.180;9.776;2023-04-24T16:32:52;16.70;99.20
19224;DHT22;9746;47.180;9.776;2023-04-24T16:35:25;16.70;99.90
19224;DHT22;9746;47.180;9.776;2023-04-24T16:37:56;16.60;99.80
19224;DHT22;9746;47.180;9.776;2023-04-24T16:40:26;16.50;99.80
19224;DHT22;9746;47.180;9.776;2023-04-24T16:42:57;16.30;99.90
19224;DHT22;9746;47.180;9.776;2023-04-24T16:45:29;16.20;99.90
19224;DHT22;9746;47.180;9.776;2023-04-24T16:47:58;16.00;99.90
19224;DHT22;9746;47.180;9.776;2023-04-24T16:50:38;15.90;99.90
19224;DHT22;9746;47.180;9.776;2023-04-24T16:53:06;15.70;99.90
19224;DHT22;9746;47.180;9.776;2023-04-24T16:55:37;15.60;99.90
19224;DHT22;9746;47.180;9.776;2023-04-24T16:58:04;15.60;99.90
19224;DHT22;9746;47.180;9.776;2023-04-24T17:00:41;15.40;99.90
19224;DHT22;9746;47.180;9.776;2023-04-24T17:03:11;15.40;99.90
19224;DHT22;9746;47.180;9.776;2023-04-24T17:05:40;15.40;99.90
19224;DHT22;9746;47.180;9.776;2023-04-24T17:08:08;15.30;99.90
19224;DHT22;9746;47.180;9.776;2023-04-24T17:10:37;15.10;99.90
19224;DHT22;9746;47.180;9.776;2023-04-24T17:13:06;14.80;99.90
19224;DHT22;9746;47.180;9.776;2023-04-24T17:15:33;14.70;99.90
19224;DHT22;9746;47.180;9.776;2023-04-24T17:18:03;14.70;99.90
19224;DHT22;9746;47.180;9.776;2023-04-24T17:20:32;14.60;99.90
19224;DHT22;9746;47.180;9.776;2023-04-24T17:23:00;14.60;99.90
19224;DHT22;9746;47.180;9.776;2023-04-24T17:25:31;14.60;99.90
19224;DHT22;9746;47.180;9.776;2023-04-24T17:27:58;14.50;99.90
19224;DHT22;9746;47.180;9.776;2023-04-24T17:30:28;14.50;99.90
19224;DHT22;9746;47.180;9.776;2023-04-24T17:32:56;14.40;99.90
19224;DHT22;9746;47.180;9.776;2023-04-24T17:35:29;14.40;99.90
19224;DHT22;9746;47.180;9.776;2023-04-24T17:37:57;14.30;99.90
19224;DHT22;9746;47.180;9.776;2023-04-24T17:40:28;14.30;99.90
19224;DHT22;9746;47.180;9.776;2023-04-24T17:42:55;14.20;99.90
19224;DHT22;9746;47.180;9.776;2023-04-24T17:45:25;14.10;99.90
19224;DHT22;9746;47.180;9.776;2023-04-24T17:47:56;14.00;99.90
19224;DHT22;9746;47.180;9.776;2023-04-24T17:50:23;13.80;99.90
19224;DHT22;9746;47.180;9.776;2023-04-24T17:52:52;13.80;99.90
19224;DHT22;9746;47.180;9.776;2023-04-24T17:55:20;13.70;99.90
19224;DHT22;9746;47.180;9.776;2023-04-24T17:57:49;13.60;99.90
19224;DHT22;9746;47.180;9.776;2023-04-24T18:00:18;13.60;99.90
19224;DHT22;9746;47.180;9.776;2023-04-24T18:02:47;13.50;99.90
19224;DHT22;9746;47.180;9.776;2023-04-24T18:05:16;13.40;99.90
19224;DHT22;9746;47.180;9.776;2023-04-24T18:07:48;13.30;99.90
19224;DHT22;9746;47.180;9.776;2023-04-24T18:10:17;13.30;99.90
19224;DHT22;9746;47.180;9.776;2023-04-24T18:13:03;13.20;99.90
19224;DHT22;9746;47.180;9.776;2023-04-24T18:15:31;13.10;99.90
19224;DHT22;9746;47.180;9.776;2023-04-24T18:18:00;12.90;99.90
19224;DHT22;9746;47.180;9.776;2023-04-24T18:20:29;12.90;99.90
19224;DHT22;9746;47.180;9.776;2023-04-24T18:23:17;12.70;99.90
19224;DHT22;9746;47.180;9.776;2023-04-24T18:25:46;12.70;99.90
19224;DHT22;9746;47.180;9.776;2023-04-24T18:28:15;12.30;99.90
19224;DHT22;9746;47.180;9.776;2023-04-24T18:30:43;12.00;99.90
19224;DHT22;9746;47.180;9.776;2023-04-24T18:33:12;12.00;99.90
19224;DHT22;9746;47.180;9.776;2023-04-24T18:35:41;12.00;99.90
19224;DHT22;9746;47.180;9.776;2023-04-24T18:38:09;12.00;99.90
19224;DHT22;9746;47.180;9.776;2023-04-24T18:40:52;11.90;99.90
19224;DHT22;9746;47.180;9.776;2023-04-24T18:43:34;11.80;99.90
19224;DHT22;9746;47.180;9.776;2023-04-24T18:46:22;11.70;99.90
19224;DHT22;9746;47.180;9.776;2023-04-24T18:48:54;11.40;99.90
19224;DHT22;9746;47.180;9.776;2023-04-24T18:51:25;11.10;99.90
19224;DHT22;9746;47.180;9.776;2023-04-24T18:53:54;10.90;99.90
19224;DHT22;9746;47.180;9.776;2023-04-24T18:56:23;10.60;99.90
19224;DHT22;9746;47.180;9.776;2023-04-24T18:58:51;10.50;99.90
19224;DHT22;9746;47.180;9.776;2023-04-24T19:01:23;10.40;99.90
19224;DHT22;9746;47.180;9.776;2023-04-24T19:03:52;10.30;99.90
19224;DHT22;9746;47.180;9.776;2023-04-24T19:06:20;10.20;99.90
19224;DHT22;9746;47.180;9.776;2023-04-24T19:08:48;10.10;99.90
19224;DHT22;9746;47.180;9.776;2023-04-24T19:11:23;10.00;99.90
19224;DHT22;9746;47.180;9.776;2023-04-24T19:13:50;10.00;99.90
19224;DHT22;9746;47.180;9.776;2023-04-24T19:16:40;9.90;99.90
19224;DHT22;9746;47.180;9.776;2023-04-24T19:19:08;9.90;99.90
19224;DHT22;9746;47.180;9.776;2023-04-24T19:21:44;10.00;99.90
19224;DHT22;9746;47.180;9.776;2023-04-24T19:24:12;10.10;99.90
19224;DHT22;9746;47.180;9.776;2023-04-24T19:26:42;10.20;99.90
19224;DHT22;9746;47.180;9.776;2023-04-24T19:29:10;10.20;99.90
19224;DHT22;9746;47.180;9.776;2023-04-24T19:31:38;10.20;99.90
19224;DHT22;9746;47.180;9.776;2023-04-24T19:34:06;10.20;99.90
